Time;durP1;ratioP1;P1;durP2;ratioP2;P2;SDS_P1;SDS_P2;PMS_P1;PMS_P2;Temp;Humidity;BMP_temperature;BMP_pressure;BME280_temperature;BME280_humidity;BME280_pressure;Samples;Min_cycle;Max_cycle;Signal;HPM_P1;HPM_P2
2022/05/17 00:01:23;;;;;;;3.33;2.75;;;14.80;99.90;;;;;;4960390;28;20046;-76
2022/05/17 00:03:49;;;;;;;5.55;2.80;;;14.70;99.90;;;;;;4956890;28;20059;-75
2022/05/17 00:06:14;;;;;;;4.68;3.13;;;14.70;99.90;;;;;;4962648;28;20041;-76
2022/05/17 00:08:41;;;;;;;4.45;2.85;;;14.70;99.90;;;;;;4960808;28;20121;-76
2022/05/17 00:11:09;;;;;;;5.35;2.80;;;14.70;99.90;;;;;;4960031;28;20038;-76
2022/05/17 00:13:34;;;;;;;4.82;2.88;;;14.70;99.90;;;;;;4957415;28;20121;-75
2022/05/17 00:16:01;;;;;;;3.40;2.90;;;14.60;99.90;;;;;;4967001;28;20130;-75
2022/05/17 00:18:27;;;;;;;3.92;2.92;;;14.60;99.90;;;;;;4967119;28;20090;-76
2022/05/17 00:20:53;;;;;;;3.97;3.03;;;14.70;99.90;;;;;;4965078;28;20073;-76
2022/05/17 00:23:19;;;;;;;4.10;2.88;;;14.60;99.90;;;;;;4964321;28;20027;-76
2022/05/17 00:25:47;;;;;;;4.55;2.80;;;14.60;99.90;;;;;;4966716;28;20348;-75
2022/05/17 00:28:14;;;;;;;4.50;2.80;;;14.60;99.90;;;;;;4963078;28;20057;-76
2022/05/17 00:30:40;;;;;;;4.65;2.72;;;14.60;99.90;;;;;;4961246;28;20178;-76
2022/05/17 00:33:06;;;;;;;6.72;3.10;;;14.60;99.90;;;;;;4958919;28;20459;-76
2022/05/17 00:35:32;;;;;;;3.40;2.72;;;14.60;99.90;;;;;;4960741;28;20039;-76
2022/05/17 00:37:57;;;;;;;4.05;2.88;;;14.60;99.90;;;;;;4966874;28;20027;-75
2022/05/17 00:40:23;;;;;;;5.93;3.30;;;14.60;99.90;;;;;;4964257;28;20469;-76
2022/05/17 00:42:49;;;;;;;5.25;3.10;;;14.50;99.90;;;;;;4969943;28;20038;-76
2022/05/17 00:45:14;;;;;;;3.70;3.10;;;14.60;99.90;;;;;;4964312;28;20038;-75
2022/05/17 00:47:50;;;;;;;4.53;2.90;;;14.60;99.90;;;;;;4965369;28;20038;-76
2022/05/17 00:50:50;;;;;;;5.45;3.17;;;14.60;99.90;;;;;;4965494;28;20022;-75
2022/05/17 00:53:26;;;;;;;4.97;2.92;;;14.50;99.90;;;;;;4952114;28;20157;-76
2022/05/17 00:55:56;;;;;;;4.72;2.78;;;14.50;99.90;;;;;;4960855;28;20038;-76
2022/05/17 00:58:30;;;;;;;4.80;2.80;;;14.50;99.90;;;;;;4961400;28;20538;-76
2022/05/17 01:01:03;;;;;;;5.60;2.80;;;14.50;99.90;;;;;;4962185;28;20109;-76
2022/05/17 01:03:51;;;;;;;3.47;3.13;;;14.40;99.90;;;;;;4960486;28;20055;-76
2022/05/17 01:06:18;;;;;;;5.32;3.20;;;14.40;99.90;;;;;;4938158;28;20998;-76
2022/05/17 01:08:44;;;;;;;3.55;3.25;;;14.40;99.90;;;;;;4943115;28;20043;-75
2022/05/17 01:11:10;;;;;;;2.78;2.47;;;14.40;99.90;;;;;;4957307;28;20039;-74
2022/05/17 01:16:23;;;;;;;5.13;3.00;;;14.30;99.90;;;;;;4958944;28;20141;-75
2022/05/17 01:18:49;;;;;;;3.17;2.88;;;14.30;99.90;;;;;;4964342;28;20038;-75
2022/05/17 01:21:15;;;;;;;4.70;2.97;;;14.30;99.90;;;;;;4961374;28;20467;-75
2022/05/17 01:23:41;;;;;;;4.78;2.67;;;14.30;99.90;;;;;;4962399;28;20037;-75
2022/05/17 01:26:14;;;;;;;5.88;2.95;;;14.30;99.90;;;;;;4960742;28;20035;-75
2022/05/17 01:28:40;;;;;;;6.13;3.08;;;14.20;99.90;;;;;;4960635;28;20185;-76
2022/05/17 01:31:06;;;;;;;3.70;2.80;;;14.20;99.90;;;;;;4959428;28;20051;-75
2022/05/17 01:33:35;;;;;;;6.15;3.67;;;14.20;99.90;;;;;;4959117;28;20046;-75
2022/05/17 01:36:04;;;;;;;3.53;3.00;;;14.00;99.90;;;;;;4956563;28;20481;-75
2022/05/17 01:38:30;;;;;;;3.47;2.92;;;13.90;99.90;;;;;;4959848;28;20707;-75
2022/05/17 01:40:56;;;;;;;5.47;3.13;;;13.90;99.90;;;;;;4963885;28;20038;-75
2022/05/17 01:43:22;;;;;;;3.80;2.67;;;13.90;99.90;;;;;;4959600;28;20042;-75
2022/05/17 01:45:47;;;;;;;6.72;3.17;;;13.90;99.90;;;;;;4963237;28;20034;-75
2022/05/17 01:48:13;;;;;;;3.97;2.95;;;13.90;99.90;;;;;;4960121;28;20084;-75
2022/05/17 01:50:39;;;;;;;3.08;2.78;;;13.80;99.90;;;;;;4959400;28;20039;-75
2022/05/17 01:53:06;;;;;;;3.53;2.60;;;13.90;99.90;;;;;;4962980;28;20035;-75
2022/05/17 01:55:32;;;;;;;4.30;3.00;;;13.80;99.90;;;;;;4961894;28;20046;-76
2022/05/17 01:57:57;;;;;;;4.70;2.92;;;13.80;99.90;;;;;;4959033;28;20457;-75
2022/05/17 02:00:23;;;;;;;5.13;2.75;;;13.80;99.90;;;;;;4943006;28;20081;-75
2022/05/17 02:02:53;;;;;;;3.20;2.90;;;13.80;99.90;;;;;;4979045;28;20093;-75
2022/05/17 02:05:23;;;;;;;3.85;2.88;;;13.70;99.90;;;;;;4977256;28;20148;-75
2022/05/17 02:07:50;;;;;;;4.70;3.65;;;13.70;99.90;;;;;;4974641;28;20060;-75
2022/05/17 02:10:17;;;;;;;5.10;3.00;;;13.70;99.90;;;;;;4981032;28;20038;-75
2022/05/17 02:12:43;;;;;;;6.32;3.22;;;13.70;99.90;;;;;;4980308;28;20033;-75
2022/05/17 02:15:09;;;;;;;4.95;2.92;;;13.80;99.90;;;;;;4982570;28;20042;-75
2022/05/17 02:17:35;;;;;;;5.05;3.00;;;13.70;99.90;;;;;;4977176;28;20037;-75
2022/05/17 02:20:06;;;;;;;4.53;3.22;;;13.70;99.90;;;;;;4983072;28;20050;-75
2022/05/17 02:22:32;;;;;;;5.47;2.78;;;13.60;99.90;;;;;;4977436;28;20084;-75
2022/05/17 02:24:57;;;;;;;4.15;2.95;;;13.60;99.90;;;;;;4975028;28;22231;-75
2022/05/17 02:27:23;;;;;;;4.20;2.90;;;13.60;99.90;;;;;;4982101;28;20042;-75
2022/05/17 02:29:48;;;;;;;4.25;3.08;;;13.60;99.90;;;;;;4981225;28;20038;-75
2022/05/17 02:32:14;;;;;;;3.00;2.78;;;13.60;99.90;;;;;;4981125;28;20073;-75
2022/05/17 02:34:41;;;;;;;6.30;3.00;;;13.50;99.90;;;;;;4981733;28;21567;-75
2022/05/17 02:37:07;;;;;;;2.90;2.45;;;13.50;99.90;;;;;;4977301;28;20051;-75
2022/05/17 02:39:34;;;;;;;3.55;2.70;;;13.40;99.90;;;;;;4979537;28;20670;-76
2022/05/17 02:42:00;;;;;;;3.17;2.58;;;13.40;99.90;;;;;;4977529;28;20061;-75
2022/05/17 02:44:25;;;;;;;3.53;2.63;;;13.50;99.90;;;;;;4980749;28;20637;-75
2022/05/17 02:46:51;;;;;;;2.42;2.22;;;13.40;99.90;;;;;;4978851;28;20034;-76
2022/05/17 02:49:16;;;;;;;4.65;3.40;;;13.40;99.90;;;;;;4978085;28;20090;-76
2022/05/17 02:51:42;;;;;;;5.07;2.78;;;13.30;99.90;;;;;;4976808;28;20034;-75
2022/05/17 02:54:10;;;;;;;3.22;2.90;;;13.00;99.90;;;;;;4979641;28;20031;-76
2022/05/17 02:56:36;;;;;;;4.43;2.70;;;13.00;99.90;;;;;;4976124;28;20050;-75
2022/05/17 02:59:03;;;;;;;3.45;2.80;;;12.80;99.90;;;;;;4978402;28;20050;-75
2022/05/17 03:01:29;;;;;;;6.63;2.80;;;12.80;99.90;;;;;;4976875;28;20055;-75
2022/05/17 03:03:54;;;;;;;4.47;2.50;;;12.80;99.90;;;;;;4980959;28;20100;-75
2022/05/17 03:06:20;;;;;;;3.10;2.20;;;12.70;99.90;;;;;;4977387;28;20409;-75
2022/05/17 03:08:46;;;;;;;8.73;2.92;;;12.70;99.90;;;;;;4980377;28;20026;-75
2022/05/17 03:11:11;;;;;;;25.05;3.33;;;12.70;99.90;;;;;;4979103;28;20118;-75
2022/05/17 03:13:37;;;;;;;19.58;3.47;;;12.50;99.90;;;;;;4978389;28;20030;-76
2022/05/17 03:16:04;;;;;;;52.33;7.50;;;12.30;99.90;;;;;;4980037;28;20035;-75
2022/05/17 03:18:30;;;;;;;9.25;3.47;;;12.10;99.90;;;;;;4977290;28;20030;-75
2022/05/17 03:20:55;;;;;;;3.58;2.60;;;12.10;99.90;;;;;;4984839;28;20519;-75
2022/05/17 03:23:21;;;;;;;4.75;3.30;;;12.10;99.90;;;;;;4982145;28;20050;-75
2022/05/17 03:25:46;;;;;;;4.68;2.95;;;12.00;99.90;;;;;;4975467;28;20042;-75
2022/05/17 03:28:13;;;;;;;6.90;3.30;;;12.10;99.90;;;;;;4983376;28;20030;-75
2022/05/17 03:30:42;;;;;;;6.35;3.70;;;12.10;99.90;;;;;;4987650;28;20034;-75
2022/05/17 03:33:08;;;;;;;5.25;3.60;;;12.20;99.90;;;;;;4976502;28;20033;-75
2022/05/17 03:35:34;;;;;;;5.78;3.38;;;12.20;99.90;;;;;;4977623;28;20480;-75
2022/05/17 03:38:00;;;;;;;4.25;3.30;;;12.20;99.90;;;;;;4976690;28;20034;-75
2022/05/17 03:40:25;;;;;;;5.05;3.28;;;12.30;99.90;;;;;;4983056;28;20130;-75
2022/05/17 03:42:51;;;;;;;3.63;2.92;;;12.20;99.90;;;;;;4974543;28;20070;-75
2022/05/17 03:45:17;;;;;;;3.65;3.20;;;12.00;99.90;;;;;;4980995;28;20049;-75
2022/05/17 03:47:43;;;;;;;5.82;3.67;;;12.00;99.90;;;;;;4977698;28;20552;-75
2022/05/17 03:50:10;;;;;;;4.03;3.42;;;12.00;99.90;;;;;;4977041;28;20049;-78
2022/05/17 03:52:36;;;;;;;5.25;3.58;;;12.00;99.90;;;;;;4983213;28;20069;-76
2022/05/17 03:55:05;;;;;;;4.97;3.10;;;12.00;99.90;;;;;;4974651;28;20081;-76
2022/05/17 03:57:31;;;;;;;7.38;3.60;;;12.00;99.90;;;;;;4976225;28;20035;-76
2022/05/17 03:59:56;;;;;;;6.47;3.65;;;12.00;99.90;;;;;;4977979;28;21571;-76
2022/05/17 04:02:23;;;;;;;4.10;3.70;;;12.00;99.90;;;;;;4976643;28;20124;-75
2022/05/17 04:04:53;;;;;;;6.40;4.05;;;12.00;99.90;;;;;;4979292;28;20026;-75
2022/05/17 04:07:19;;;;;;;4.70;3.47;;;12.00;99.90;;;;;;4978001;28;20313;-75
2022/05/17 04:09:45;;;;;;;4.57;3.35;;;11.90;99.90;;;;;;4978603;28;20026;-76
2022/05/17 04:12:11;;;;;;;5.80;3.80;;;11.90;99.90;;;;;;4981903;28;20121;-75
2022/05/17 04:14:37;;;;;;;5.18;3.70;;;12.00;99.90;;;;;;4979205;28;20109;-76
2022/05/17 04:17:03;;;;;;;6.80;3.75;;;12.10;99.90;;;;;;4980388;28;20027;-76
2022/05/17 04:19:29;;;;;;;5.75;3.60;;;12.20;99.90;;;;;;4977674;28;20129;-76
2022/05/17 04:21:58;;;;;;;7.03;3.83;;;12.30;99.90;;;;;;4978812;28;20096;-76
2022/05/17 04:24:24;;;;;;;7.75;3.72;;;12.20;99.90;;;;;;4979499;28;20037;-76
2022/05/17 04:26:50;;;;;;;6.80;3.40;;;12.30;99.90;;;;;;4979853;28;20248;-76
2022/05/17 04:29:16;;;;;;;6.50;3.83;;;12.30;99.90;;;;;;4978991;28;20125;-76
2022/05/17 04:31:41;;;;;;;4.70;4.13;;;12.40;99.90;;;;;;4979878;28;20057;-76
2022/05/17 04:34:07;;;;;;;7.40;4.00;;;12.30;99.90;;;;;;4981576;28;20042;-76
2022/05/17 04:36:33;;;;;;;4.70;3.80;;;12.40;99.90;;;;;;4982521;28;20650;-76
2022/05/17 04:39:00;;;;;;;5.57;4.53;;;12.50;99.90;;;;;;4976139;28;20386;-76
2022/05/17 04:41:26;;;;;;;6.75;4.68;;;12.70;99.90;;;;;;4980008;28;20803;-76
2022/05/17 04:43:54;;;;;;;5.15;4.05;;;12.80;99.90;;;;;;4978405;28;20035;-76
2022/05/17 04:46:20;;;;;;;;;;;12.90;99.90;;;;;;4981835;28;20060;-76
2022/05/17 04:48:45;;;;;;;7.35;4.68;;;13.00;99.90;;;;;;4978228;28;19918;-76
2022/05/17 04:51:12;;;;;;;6.55;4.85;;;13.10;99.90;;;;;;4961762;28;20052;-75
2022/05/17 04:53:41;;;;;;;6.00;4.75;;;13.10;99.90;;;;;;4980520;28;20034;-76
2022/05/17 04:56:08;;;;;;;10.77;5.18;;;13.00;99.90;;;;;;4980056;28;20246;-76
2022/05/17 04:58:34;;;;;;;7.93;5.05;;;13.00;99.90;;;;;;4977915;28;20549;-76
2022/05/17 05:01:00;;;;;;;6.82;5.32;;;13.10;99.90;;;;;;4980120;28;20482;-76
2022/05/17 05:03:27;;;;;;;9.10;5.47;;;13.10;99.90;;;;;;4982210;28;20122;-76
2022/05/17 05:05:52;;;;;;;7.10;5.25;;;13.20;99.90;;;;;;4986608;28;20532;-76
2022/05/17 05:08:18;;;;;;;6.35;5.18;;;13.40;99.90;;;;;;4986891;28;20035;-76
2022/05/17 05:10:45;;;;;;;8.02;5.50;;;13.50;99.90;;;;;;4983100;28;21210;-75
2022/05/17 05:13:19;;;;;;;11.75;5.75;;;13.40;99.90;;;;;;4984808;28;20035;-76
2022/05/17 05:15:45;;;;;;;7.20;5.50;;;13.30;99.90;;;;;;4984090;28;20397;-76
2022/05/17 05:18:11;;;;;;;9.13;5.75;;;13.40;99.90;;;;;;4982020;28;20025;-76
2022/05/17 05:20:39;;;;;;;8.15;5.35;;;13.50;99.90;;;;;;4983177;28;20042;-76
2022/05/17 05:23:05;;;;;;;7.95;5.55;;;13.60;99.90;;;;;;4985295;28;20421;-76
2022/05/17 05:25:31;;;;;;;6.57;5.32;;;13.70;99.90;;;;;;4983093;28;20034;-76
2022/05/17 05:27:57;;;;;;;8.43;5.63;;;13.90;99.90;;;;;;4983044;28;20070;-76
2022/05/17 05:30:23;;;;;;;7.63;5.60;;;13.90;99.90;;;;;;4982192;28;20598;-77
2022/05/17 05:32:49;;;;;;;6.80;5.50;;;14.00;99.90;;;;;;4984401;28;20035;-77
2022/05/17 05:35:16;;;;;;;6.30;5.00;;;14.20;99.90;;;;;;4983135;28;20039;-76
2022/05/17 05:37:42;;;;;;;9.32;5.63;;;14.30;99.90;;;;;;4984956;28;20065;-77
2022/05/17 05:40:09;;;;;;;8.32;5.45;;;14.50;99.90;;;;;;4988688;28;20047;-77
2022/05/17 05:42:35;;;;;;;12.07;5.90;;;14.60;99.90;;;;;;4987494;28;20068;-77
2022/05/17 05:45:02;;;;;;;8.02;5.85;;;14.50;99.90;;;;;;4981667;28;20027;-77
2022/05/17 05:47:28;;;;;;;7.45;5.32;;;14.70;99.90;;;;;;4981802;28;20042;-76
2022/05/17 05:49:53;;;;;;;7.57;5.57;;;14.80;99.90;;;;;;4982952;28;20120;-76
2022/05/17 05:52:19;;;;;;;7.32;5.22;;;14.80;99.90;;;;;;4982615;28;20508;-76
2022/05/17 05:54:44;;;;;;;7.97;5.13;;;14.80;99.90;;;;;;4982047;28;20117;-76
2022/05/17 05:57:10;;;;;;;10.88;5.38;;;14.80;99.90;;;;;;4983515;28;20030;-76
2022/05/17 05:59:36;;;;;;;7.97;5.43;;;14.90;99.90;;;;;;4976680;28;20045;-75
2022/05/17 06:02:03;;;;;;;8.32;5.32;;;15.20;99.90;;;;;;4978721;28;20050;-75
2022/05/17 06:04:29;;;;;;;9.13;5.28;;;15.20;99.90;;;;;;4979490;28;20134;-75
2022/05/17 06:06:56;;;;;;;8.88;5.00;;;15.00;99.90;;;;;;4978145;28;20040;-75
2022/05/17 06:09:23;;;;;;;11.55;5.60;;;15.10;99.90;;;;;;4979442;28;20447;-76
2022/05/17 06:11:49;;;;;;;13.20;5.07;;;15.30;99.90;;;;;;4961009;28;20130;-76
2022/05/17 06:14:14;;;;;;;7.68;5.03;;;15.50;99.90;;;;;;4979853;28;20134;-76
2022/05/17 06:16:40;;;;;;;10.23;5.68;;;15.80;99.90;;;;;;4977632;28;20041;-76
2022/05/17 06:19:06;;;;;;;9.55;5.38;;;15.80;99.90;;;;;;4975738;28;20106;-76
2022/05/17 06:21:32;;;;;;;6.38;4.82;;;16.00;99.90;;;;;;4977294;28;20934;-76
2022/05/17 06:23:58;;;;;;;10.25;5.88;;;16.10;99.90;;;;;;4980635;28;20057;-75
2022/05/17 06:26:24;;;;;;;9.82;6.10;;;16.20;99.90;;;;;;4978176;28;20335;-77
2022/05/17 06:28:50;;;;;;;8.10;4.63;;;16.50;99.90;;;;;;4981049;28;20045;-76
2022/05/17 06:31:15;;;;;;;6.35;4.80;;;16.70;99.90;;;;;;4981876;28;20038;-76
2022/05/17 06:33:41;;;;;;;6.20;4.13;;;16.80;99.90;;;;;;4988631;28;20042;-76
2022/05/17 06:36:07;;;;;;;6.53;4.75;;;16.70;99.90;;;;;;4990609;28;20030;-77
2022/05/17 06:38:34;;;;;;;8.85;4.80;;;16.70;99.90;;;;;;4966030;28;20065;-76
2022/05/17 06:40:59;;;;;;;10.70;4.82;;;16.80;99.90;;;;;;4987061;28;20038;-77
2022/05/17 06:43:26;;;;;;;6.78;4.50;;;17.10;99.90;;;;;;4985387;28;20049;-77
2022/05/17 06:45:52;;;;;;;8.23;5.25;;;17.30;99.90;;;;;;4984381;28;20046;-77
2022/05/17 06:48:19;;;;;;;8.40;4.80;;;17.30;99.90;;;;;;4981707;28;20385;-77
2022/05/17 06:50:45;;;;;;;5.70;4.32;;;17.60;99.90;;;;;;4985226;28;20092;-76
2022/05/17 06:53:10;;;;;;;6.88;5.00;;;17.40;99.90;;;;;;4983906;28;20417;-77
2022/05/17 06:55:37;;;;;;;7.05;4.35;;;17.40;99.90;;;;;;4986711;28;20038;-77
2022/05/17 06:58:04;;;;;;;8.40;5.05;;;17.60;99.90;;;;;;4985785;28;20085;-77
2022/05/17 07:00:31;;;;;;;6.85;3.72;;;18.00;99.90;;;;;;4983944;28;20046;-77
2022/05/17 07:02:58;;;;;;;7.05;4.88;;;17.70;99.90;;;;;;4981547;28;20086;-77
2022/05/17 07:05:24;;;;;;;10.05;4.70;;;17.60;99.90;;;;;;4983633;28;20046;-76
2022/05/17 07:07:49;;;;;;;8.50;4.28;;;17.40;99.90;;;;;;4984853;28;20505;-77
2022/05/17 07:13:08;;;;;;;10.88;5.25;;;17.80;99.90;;;;;;4981048;28;20045;-76
2022/05/17 07:15:35;;;;;;;7.22;5.35;;;17.90;99.90;;;;;;4982487;28;20038;-77
2022/05/17 07:18:01;;;;;;;9.77;5.50;;;18.00;99.90;;;;;;4985122;28;20141;-76
2022/05/17 07:20:28;;;;;;;6.95;4.90;;;18.30;99.90;;;;;;4984858;28;20145;-76
2022/05/17 07:22:53;;;;;;;7.40;4.88;;;18.60;99.90;;;;;;4983721;28;20041;-77
2022/05/17 07:25:19;;;;;;;8.65;5.00;;;18.60;99.90;;;;;;4963482;28;20045;-77
2022/05/17 07:27:45;;;;;;;7.00;4.20;;;18.30;99.90;;;;;;4983377;28;20035;-76
2022/05/17 07:30:12;;;;;;;8.27;4.78;;;18.60;99.90;;;;;;4984418;28;20049;-76
2022/05/17 07:32:38;;;;;;;6.03;4.20;;;19.00;99.90;;;;;;4982655;28;20038;-76
2022/05/17 07:35:06;;;;;;;10.35;4.63;;;18.80;99.90;;;;;;4982752;28;20130;-76
2022/05/17 07:37:33;;;;;;;8.77;4.20;;;18.60;99.90;;;;;;4983160;28;20038;-77
2022/05/17 07:39:59;;;;;;;10.68;5.20;;;18.80;99.90;;;;;;4978577;28;20050;-78
2022/05/17 07:42:25;;;;;;;8.18;4.60;;;18.60;99.90;;;;;;4984084;28;20045;-76
2022/05/17 07:44:50;;;;;;;10.50;3.90;;;18.80;99.90;;;;;;4981177;28;20521;-77
2022/05/17 07:47:16;;;;;;;9.48;5.07;;;19.10;99.90;;;;;;4984481;28;20030;-77
2022/05/17 07:49:42;;;;;;;6.65;4.28;;;18.90;99.90;;;;;;4982228;28;20042;-76
2022/05/17 07:52:09;;;;;;;9.73;4.30;;;19.10;99.90;;;;;;4983941;28;20041;-77
2022/05/17 07:54:36;;;;;;;9.95;4.18;;;19.60;99.90;;;;;;4969012;28;20041;-77
2022/05/17 07:57:01;;;;;;;5.18;4.40;;;19.80;99.90;;;;;;4988875;28;20121;-77
2022/05/17 07:59:27;;;;;;;7.38;4.60;;;20.00;99.90;;;;;;4984113;28;20119;-77
2022/05/17 08:01:53;;;;;;;11.48;4.05;;;20.10;99.90;;;;;;4989113;28;20042;-77
2022/05/17 08:04:18;;;;;;;8.02;4.47;;;19.70;99.90;;;;;;4988759;28;20050;-77
2022/05/17 08:06:44;;;;;;;5.38;3.95;;;19.50;99.90;;;;;;4983710;28;20089;-77
2022/05/17 08:09:10;;;;;;;7.47;4.10;;;19.60;99.90;;;;;;4987877;28;20395;-77
2022/05/17 08:11:35;;;;;;;8.00;4.50;;;19.70;99.90;;;;;;4988084;28;20088;-77
2022/05/17 08:14:01;;;;;;;5.03;3.40;;;19.90;99.90;;;;;;4984649;28;20126;-77
2022/05/17 08:16:26;;;;;;;5.70;3.90;;;19.60;99.90;;;;;;4984906;28;20038;-77
2022/05/17 08:18:52;;;;;;;5.55;3.92;;;19.90;99.90;;;;;;4966902;28;20390;-77
2022/05/17 08:21:18;;;;;;;6.57;3.83;;;20.40;99.90;;;;;;4992004;28;20500;-77
2022/05/17 08:23:43;;;;;;;9.40;4.25;;;20.60;99.90;;;;;;4985647;28;20042;-78
2022/05/17 08:28:55;;;;;;;5.45;3.42;;;20.40;99.90;;;;;;4988393;28;20040;-77
2022/05/17 08:31:21;;;;;;;4.40;3.42;;;20.50;97.80;;;;;;4986621;28;20042;-78
2022/05/17 08:33:49;;;;;;;6.03;3.45;;;20.70;99.90;;;;;;4979882;28;20042;-78
2022/05/17 08:36:14;;;;;;;6.07;3.10;;;21.00;97.80;;;;;;4988767;28;20022;-78
2022/05/17 08:38:43;;;;;;;4.72;3.15;;;21.10;96.90;;;;;;4984873;28;20702;-78
2022/05/17 08:41:42;;;;;;;6.72;3.05;;;21.00;96.20;;;;;;4972233;28;20130;-78
2022/05/17 08:44:12;;;;;;;4.75;3.10;;;21.20;94.90;;;;;;4990656;28;20019;-77
2022/05/17 08:46:56;;;;;;;4.60;2.72;;;21.10;92.80;;;;;;4993587;28;20133;-77
2022/05/17 08:49:29;;;;;;;7.65;3.40;;;21.30;93.30;;;;;;4988883;28;20030;-77
2022/05/17 08:52:07;;;;;;;4.07;2.90;;;21.40;92.00;;;;;;4987150;28;20038;-77
2022/05/17 08:54:52;;;;;;;6.30;3.30;;;21.10;93.00;;;;;;4986167;28;20065;-78
2022/05/17 08:57:39;;;;;;;5.57;3.20;;;20.60;96.50;;;;;;4989856;28;20026;-77
2022/05/17 09:00:29;;;;;;;6.88;3.40;;;20.40;94.10;;;;;;4988240;28;20026;-77
2022/05/17 09:03:06;;;;;;;6.32;3.20;;;20.20;93.60;;;;;;4987132;28;20125;-77
2022/05/17 09:05:44;;;;;;;5.40;3.30;;;20.70;95.10;;;;;;4992578;28;20038;-78
2022/05/17 09:08:14;;;;;;;5.35;3.53;;;21.40;98.10;;;;;;4989320;28;20038;-78
2022/05/17 09:10:53;;;;;;;5.45;2.95;;;21.60;95.60;;;;;;4987302;28;20133;-77
2022/05/17 09:13:33;;;;;;;3.65;3.00;;;21.10;90.50;;;;;;4973099;28;20035;-77
2022/05/17 09:16:00;;;;;;;6.88;3.42;;;21.00;92.50;;;;;;4989397;28;20473;-77
2022/05/17 09:18:29;;;;;;;6.00;3.77;;;21.30;94.30;;;;;;4989765;28;20030;-77
2022/05/17 09:20:54;;;;;;;5.88;3.22;;;21.50;91.00;;;;;;4975964;28;20045;-78
2022/05/17 09:23:20;;;;;;;5.35;3.30;;;21.30;90.70;;;;;;4990864;28;20031;-77
2022/05/17 09:25:51;;;;;;;5.60;3.05;;;21.70;94.20;;;;;;4992645;28;20037;-77
2022/05/17 09:28:42;;;;;;;5.50;3.15;;;21.80;92.10;;;;;;4973375;28;20031;-77
2022/05/17 09:31:10;;;;;;;6.28;3.13;;;22.00;93.00;;;;;;4970708;28;20561;-77
2022/05/17 09:33:39;;;;;;;4.13;3.00;;;22.20;90.80;;;;;;4989429;28;20038;-76
2022/05/17 09:36:07;;;;;;;5.53;3.38;;;22.10;89.00;;;;;;4988835;28;20102;-77
2022/05/17 09:38:36;;;;;;;5.10;3.20;;;22.20;77.00;;;;;;4989106;28;20455;-78
2022/05/17 09:41:07;;;;;;;6.75;3.05;;;22.40;90.30;;;;;;4990786;28;20096;-77
2022/05/17 09:44:02;;;;;;;3.58;3.28;;;22.60;88.20;;;;;;4986813;28;20043;-77
2022/05/17 09:46:32;;;;;;;3.97;2.80;;;23.00;86.30;;;;;;4988772;28;20050;-77
2022/05/17 09:52:32;;;;;;;4.65;2.30;;;23.10;68.50;;;;;;4982907;28;20048;-78
2022/05/17 09:55:29;;;;;;;2.83;2.05;;;22.80;71.00;;;;;;4988939;28;20203;-77
2022/05/17 09:58:10;;;;;;;3.95;2.72;;;23.00;80.90;;;;;;4986983;28;20070;-78
2022/05/17 10:00:40;;;;;;;2.20;1.98;;;23.00;68.10;;;;;;4986027;28;20052;-78
2022/05/17 10:03:15;;;;;;;4.15;2.42;;;22.90;64.10;;;;;;4985725;28;20142;-77
2022/05/17 10:05:48;;;;;;;3.65;2.75;;;22.80;68.50;;;;;;4983391;28;20041;-77
2022/05/17 10:08:13;;;;;;;3.40;2.83;;;22.90;72.10;;;;;;4985341;28;20042;-77
2022/05/17 10:10:45;;;;;;;4.20;2.63;;;23.00;72.90;;;;;;4986817;28;20081;-78
2022/05/17 10:13:38;;;;;;;3.60;2.47;;;23.00;69.00;;;;;;4988432;28;20474;-78
2022/05/17 10:16:37;;;;;;;4.32;2.47;;;23.10;76.20;;;;;;4989850;28;20039;-79
2022/05/17 10:19:30;;;;;;;5.00;2.85;;;22.70;76.00;;;;;;4978945;28;20066;-78
2022/05/17 10:22:08;;;;;;;9.68;2.85;;;22.10;71.10;;;;;;4990934;28;20042;-79
2022/05/17 10:24:42;;;;;;;4.57;2.47;;;21.40;87.20;;;;;;4987711;28;20041;-78
2022/05/17 10:27:15;;;;;;;2.95;2.35;;;21.40;83.70;;;;;;4980641;28;20038;-77
2022/05/17 10:29:52;;;;;;;4.30;3.00;;;22.20;83.80;;;;;;4987113;28;20423;-78
2022/05/17 10:32:31;;;;;;;2.72;2.53;;;21.80;76.00;;;;;;4988671;28;20173;-78
2022/05/17 10:35:12;;;;;;;3.20;2.63;;;22.20;82.70;;;;;;4981701;28;20388;-77
2022/05/17 10:37:47;;;;;;;3.63;2.55;;;22.50;71.80;;;;;;4984404;28;20382;-77
2022/05/17 10:40:17;;;;;;;3.80;2.55;;;21.50;72.40;;;;;;4987180;28;20409;-77
2022/05/17 10:42:43;;;;;;;6.10;3.00;;;21.40;75.60;;;;;;4986670;28;20100;-77
2022/05/17 10:45:19;;;;;;;3.33;2.50;;;21.40;81.30;;;;;;4991242;28;20022;-77
2022/05/17 10:47:47;;;;;;;4.68;2.72;;;21.60;81.90;;;;;;4987766;28;20042;-77
2022/05/17 10:50:47;;;;;;;3.95;2.50;;;21.80;75.50;;;;;;4988820;28;20149;-77
2022/05/17 10:53:23;;;;;;;3.03;2.30;;;21.90;70.80;;;;;;4987316;28;20618;-76
2022/05/17 10:56:10;;;;;;;2.65;2.08;;;21.60;74.10;;;;;;4986491;28;20038;-77
2022/05/17 10:59:11;;;;;;;5.47;2.42;;;21.60;71.50;;;;;;4981727;28;20116;-76
2022/05/17 11:01:55;;;;;;;3.38;2.53;;;21.70;82.20;;;;;;4953292;28;20538;-77
2022/05/17 11:04:57;;;;;;;3.50;2.55;;;21.90;68.20;;;;;;4965161;28;20466;-77
2022/05/17 11:07:55;;;;;;;2.85;2.40;;;21.80;71.80;;;;;;4987111;28;20044;-77
2022/05/17 11:11:00;;;;;;;4.47;2.70;;;21.80;74.80;;;;;;4982681;28;20037;-77
2022/05/17 11:13:53;;;;;;;5.00;3.08;;;21.50;79.30;;;;;;4985241;28;20042;-77
2022/05/17 11:16:29;;;;;;;3.92;2.25;;;21.30;80.70;;;;;;4983894;28;20462;-76
2022/05/17 11:19:03;;;;;;;3.50;2.10;;;21.30;74.30;;;;;;4989369;28;20030;-76
2022/05/17 11:21:41;;;;;;;4.45;2.33;;;21.50;77.90;;;;;;4990038;28;20490;-76
2022/05/17 11:24:22;;;;;;;5.13;2.53;;;21.90;74.30;;;;;;4988785;28;20038;-77
2022/05/17 11:27:04;;;;;;;3.08;2.30;;;21.70;69.50;;;;;;4986336;28;20049;-77
2022/05/17 11:30:08;;;;;;;4.47;2.55;;;21.70;74.70;;;;;;4989355;28;20381;-76
2022/05/17 11:32:36;;;;;;;4.68;2.50;;;21.50;66.30;;;;;;4987315;28;20042;-77
2022/05/17 11:35:24;;;;;;;3.90;2.47;;;21.70;77.90;;;;;;4986694;28;20516;-77
2022/05/17 11:37:50;;;;;;;4.38;2.90;;;21.80;80.30;;;;;;4986798;28;20093;-76
2022/05/17 11:40:49;;;;;;;5.18;2.70;;;21.90;73.70;;;;;;4984071;28;20069;-77
2022/05/17 11:43:41;;;;;;;4.45;2.50;;;21.70;76.40;;;;;;4986617;28;20084;-77
2022/05/17 11:46:28;;;;;;;3.83;2.40;;;21.50;74.70;;;;;;4986024;28;20115;-77
2022/05/17 11:48:56;;;;;;;2.75;2.45;;;21.70;76.40;;;;;;4984645;28;20038;-77
2022/05/17 11:51:24;;;;;;;4.85;2.50;;;22.00;77.00;;;;;;4984813;28;20121;-77
2022/05/17 11:53:52;;;;;;;6.85;2.63;;;22.20;71.40;;;;;;4987809;28;20034;-76
2022/05/17 11:56:25;;;;;;;4.22;2.30;;;22.30;69.30;;;;;;4986716;28;20043;-77
2022/05/17 11:59:14;;;;;;;4.00;2.60;;;22.70;65.40;;;;;;4988453;28;20521;-77
2022/05/17 12:01:40;;;;;;;2.30;2.10;;;22.90;66.40;;;;;;4946553;28;20054;-77
2022/05/17 12:04:20;;;;;;;8.77;3.28;;;22.90;66.50;;;;;;4986116;28;20081;-77
2022/05/17 12:06:52;;;;;;;6.78;3.38;;;22.50;74.10;;;;;;4990309;28;20030;-77
2022/05/17 12:09:21;;;;;;;5.30;4.00;;;22.20;80.30;;;;;;4969268;28;20034;-77
2022/05/17 12:12:43;;;;;;;5.30;3.90;;;21.70;88.10;;;;;;4989309;28;20034;-77
2022/05/17 12:15:30;;;;;;;6.70;4.15;;;21.40;83.00;;;;;;4915057;29;20036;-76
2022/05/17 12:18:09;;;;;;;4.07;3.67;;;21.60;91.30;;;;;;4910465;29;20043;-77
2022/05/17 12:20:47;;;;;;;5.57;3.55;;;21.50;88.10;;;;;;4973617;28;20153;-77
2022/05/17 12:23:25;;;;;;;5.20;3.40;;;21.50;92.60;;;;;;4990499;28;20038;-77
2022/05/17 12:26:01;;;;;;;4.25;3.08;;;21.40;88.30;;;;;;4993423;28;20417;-77
2022/05/17 12:28:34;;;;;;;4.47;2.97;;;21.30;84.50;;;;;;4988440;28;20132;-77
2022/05/17 12:31:01;;;;;;;6.82;4.32;;;21.30;83.80;;;;;;4986308;28;20039;-77
2022/05/17 12:33:41;;;;;;;9.13;4.38;;;21.40;91.00;;;;;;4986442;28;20494;-76
2022/05/17 12:36:27;;;;;;;6.35;4.43;;;21.60;94.40;;;;;;4988163;28;20026;-76
2022/05/17 12:44:50;;;;;;;7.30;3.30;;;21.90;82.80;;;;;;4987883;28;20092;-76
2022/05/17 12:47:47;;;;;;;;;;;21.90;89.10;;;;;;4987625;28;20026;-75
2022/05/17 12:50:16;;;;;;;4.80;3.40;;;21.90;78.00;;;;;;4990146;28;19918;-76
2022/05/17 12:52:44;;;;;;;3.63;3.03;;;21.80;91.90;;;;;;4989233;28;20273;-77
2022/05/17 12:55:16;;;;;;;9.38;3.20;;;21.80;82.60;;;;;;4991252;28;20077;-77
2022/05/17 12:57:41;;;;;;;4.60;3.22;;;21.60;78.30;;;;;;4975508;28;20128;-77
2022/05/17 13:00:30;;;;;;;5.38;2.95;;;21.40;81.00;;;;;;4987530;28;20102;-76
2022/05/17 13:03:14;;;;;;;3.28;2.67;;;21.30;83.60;;;;;;4987412;28;20046;-77
2022/05/17 13:05:51;;;;;;;2.60;2.40;;;21.40;86.90;;;;;;4986234;28;20064;-77
2022/05/17 13:08:23;;;;;;;2.95;2.75;;;21.40;87.00;;;;;;4987951;28;20034;-76
2022/05/17 13:10:58;;;;;;;4.97;2.95;;;21.40;81.80;;;;;;4988572;28;20851;-77
2022/05/17 13:13:24;;;;;;;5.32;2.85;;;21.60;82.50;;;;;;4990813;28;20041;-77
2022/05/17 13:15:54;;;;;;;4.90;3.10;;;21.70;76.40;;;;;;4981599;28;20027;-76
2022/05/17 13:18:21;;;;;;;2.80;2.42;;;21.90;90.40;;;;;;4986948;28;20054;-78
2022/05/17 13:20:49;;;;;;;4.40;2.95;;;21.80;70.50;;;;;;4987364;28;20141;-76
2022/05/17 13:23:21;;;;;;;4.43;2.80;;;21.80;75.30;;;;;;4987079;28;20030;-76